Time;durP1;ratioP1;P1;durP2;ratioP2;P2;SDS_P1;SDS_P2;PMS_P1;PMS_P2;Temp;Humidity;BMP_temperature;BMP_pressure;BME280_temperature;BME280_humidity;BME280_pressure;Samples;Min_cycle;Max_cycle;Signal;HPM_P1;HPM_P2
2023/12/17 00:00:45;;;;;;;46.17;21.52;;;;;;;1.47;90.50;101928.69;3162266;28;20119;-69
2023/12/17 00:02:15;;;;;;;45.95;21.10;;;;;;;1.46;90.44;101932.09;3157413;28;20101;-70
2023/12/17 00:03:47;;;;;;;49.40;21.75;;;;;;;1.46;90.38;101937.25;3157402;28;20187;-70
2023/12/17 00:05:18;;;;;;;42.35;19.98;;;;;;;1.45;90.34;101948.34;3164634;28;20120;-73
2023/12/17 00:06:51;;;;;;;48.20;20.30;;;;;;;1.44;90.35;101944.03;3158517;28;20110;-73
2023/12/17 00:08:22;;;;;;;46.05;21.40;;;;;;;1.41;90.42;101946.50;3153646;28;21302;-74
2023/12/17 00:09:54;;;;;;;44.10;20.35;;;;;;;1.36;90.34;101948.06;3153768;28;20094;-73
2023/12/17 00:11:25;;;;;;;42.42;19.98;;;;;;;1.24;90.35;101922.09;3153761;28;20118;-73
2023/12/17 00:12:57;;;;;;;44.40;20.45;;;;;;;1.40;90.38;101959.31;3156072;28;20059;-73
2023/12/17 00:14:27;;;;;;;45.10;21.77;;;;;;;1.38;90.34;101951.56;3153792;28;20705;-74
2023/12/17 00:15:59;;;;;;;50.90;21.80;;;;;;;1.33;90.28;101941.19;3163375;28;20056;-74
2023/12/17 00:17:30;;;;;;;48.03;22.42;;;;;;;1.36;90.25;101950.66;3166201;28;20051;-75
2023/12/17 00:19:02;;;;;;;60.95;29.45;;;;;;;1.34;90.25;101949.75;3158191;28;20116;-75
2023/12/17 00:20:33;;;;;;;62.40;27.83;;;;;;;1.33;90.38;101950.56;3157142;28;20101;-75
2023/12/17 00:22:07;;;;;;;52.75;25.75;;;;;;;1.32;90.32;101965.09;3157795;28;20112;-76
2023/12/17 00:23:37;;;;;;;;;;;;;;;1.19;90.44;101964.75;3154089;28;20444;-74
2023/12/17 00:25:09;;;;;;;50.83;22.08;;;;;;;1.17;90.66;101956.97;3157485;28;19930;-74
2023/12/17 00:26:40;;;;;;;46.58;21.60;;;;;;;1.22;90.61;101965.69;3153393;28;20056;-74
2023/12/17 00:28:12;;;;;;;42.08;20.38;;;;;;;1.24;90.51;101970.84;3156641;28;20516;-74
2023/12/17 00:29:42;;;;;;;42.47;20.42;;;;;;;1.24;90.38;101968.28;3157681;28;20535;-74
2023/12/17 00:31:17;;;;;;;44.58;19.60;;;;;;;1.22;90.42;101973.38;3159593;28;20094;-74
2023/12/17 00:32:48;;;;;;;41.65;20.13;;;;;;;1.21;90.36;101973.34;3164339;28;20066;-75
2023/12/17 00:34:20;;;;;;;45.72;21.85;;;;;;;1.22;90.45;101977.66;3153259;28;20135;-75
2023/12/17 00:35:52;;;;;;;43.28;20.70;;;;;;;1.22;90.43;101973.38;3157656;28;20397;-76
2023/12/17 00:37:25;;;;;;;42.42;20.98;;;;;;;1.22;90.48;101973.38;3153735;28;20056;-74
2023/12/17 00:38:55;;;;;;;46.25;21.02;;;;;;;1.20;90.43;101971.59;3165191;28;20081;-74
2023/12/17 00:40:27;;;;;;;43.70;19.63;;;;;;;1.19;90.48;101977.56;3154364;28;20048;-74
2023/12/17 00:41:58;;;;;;;45.92;19.73;;;;;;;1.19;90.46;101977.56;3154170;28;20087;-74
2023/12/17 00:43:30;;;;;;;39.13;19.80;;;;;;;1.03;90.48;101953.16;3165502;28;20052;-75
2023/12/17 00:45:02;;;;;;;43.80;19.90;;;;;;;1.07;90.43;101962.69;3160606;28;20059;-78
2023/12/17 00:46:33;;;;;;;49.28;19.48;;;;;;;1.19;90.58;101982.72;3167301;28;20051;-77
2023/12/17 00:48:05;;;;;;;34.25;17.73;;;;;;;1.17;90.39;101982.66;3158463;28;20048;-78
2023/12/17 00:49:36;;;;;;;38.42;19.02;;;;;;;1.17;90.42;101984.34;3153052;28;20064;-78
2023/12/17 00:51:12;;;;;;;35.63;17.90;;;;;;;1.02;90.44;101956.56;3156751;28;20493;-76
2023/12/17 00:52:45;;;;;;;40.53;18.63;;;;;;;1.17;90.45;101976.66;3153425;28;20047;-77
2023/12/17 00:54:15;;;;;;;;;;;;;;;1.04;90.56;101985.72;3153646;28;20719;-76
2023/12/17 00:55:47;;;;;;;37.25;17.95;;;;;;;1.07;90.72;101978.09;3154734;28;19928;-76
2023/12/17 00:57:18;;;;;;;40.22;19.52;;;;;;;1.10;90.70;101986.75;3161379;28;20189;-75
2023/12/17 00:58:50;;;;;;;41.55;20.00;;;;;;;1.11;90.79;101982.47;3154393;28;20056;-77
2023/12/17 01:00:21;;;;;;;42.20;20.60;;;;;;;1.10;90.60;101983.31;3164651;28;20059;-74
2023/12/17 01:01:54;;;;;;;44.70;21.35;;;;;;;1.09;90.56;101991.81;3152808;28;20056;-74
2023/12/17 01:03:25;;;;;;;44.03;21.92;;;;;;;1.06;90.67;101994.28;3153055;28;20058;-75
2023/12/17 01:04:57;;;;;;;45.50;21.35;;;;;;;1.06;90.62;101978.91;3157038;28;20047;-75
2023/12/17 01:06:28;;;;;;;43.45;19.83;;;;;;;1.03;90.72;101978.81;3154072;28;20078;-75
2023/12/17 01:08:01;;;;;;;46.63;21.13;;;;;;;1.03;90.61;101979.69;3153163;28;20051;-75
2023/12/17 01:09:32;;;;;;;;;;;;;;;0.90;90.95;101985.28;3163108;28;20111;-75
2023/12/17 01:11:04;;;;;;;42.63;18.90;;;;;;;0.94;91.15;101981.97;3161614;28;20423;-74
2023/12/17 01:12:35;;;;;;;44.67;21.00;;;;;;;0.97;91.01;101981.22;3157494;28;20074;-75
2023/12/17 01:14:07;;;;;;;39.92;19.33;;;;;;;0.84;90.91;101954.34;3163972;28;20060;-78
2023/12/17 01:15:37;;;;;;;37.47;18.92;;;;;;;0.94;90.78;101974.28;3161997;28;20047;-76
2023/12/17 01:17:09;;;;;;;44.22;20.33;;;;;;;0.81;90.65;101955.13;3159830;28;20142;-70
2023/12/17 01:18:40;;;;;;;44.22;19.30;;;;;;;0.99;90.65;101988.13;3157608;28;20531;-73
2023/12/17 01:20:13;;;;;;;44.22;19.52;;;;;;;1.00;90.75;101989.84;3156856;28;20044;-75
2023/12/17 01:21:43;;;;;;;42.70;19.20;;;;;;;0.99;90.60;101985.56;3152841;28;20055;-76
2023/12/17 01:23:17;;;;;;;41.38;18.80;;;;;;;1.00;90.55;101987.28;3158785;28;20111;-75
2023/12/17 01:24:52;;;;;;;44.80;19.33;;;;;;;0.99;90.49;101990.69;3160651;28;20063;-75
2023/12/17 01:26:26;;;;;;;43.40;19.15;;;;;;;0.99;90.46;101989.81;3155719;28;20052;-77
2023/12/17 01:27:57;;;;;;;34.45;18.20;;;;;;;0.98;90.62;101988.09;3154011;28;20098;-77
2023/12/17 01:29:28;;;;;;;37.97;18.52;;;;;;;0.99;90.48;101992.41;3163447;28;20516;-78
2023/12/17 01:30:59;;;;;;;36.90;17.95;;;;;;;0.95;90.66;101981.19;3153055;28;20068;-78
2023/12/17 01:32:31;;;;;;;38.88;18.88;;;;;;;1.00;90.68;101986.44;3165358;28;20055;-79
2023/12/17 01:34:02;;;;;;;39.53;19.33;;;;;;;0.98;90.57;101994.09;3155753;28;20068;-79
2023/12/17 01:35:34;;;;;;;38.03;19.35;;;;;;;1.01;90.64;101991.63;3154489;28;20052;-82
2023/12/17 01:37:05;;;;;;;36.50;17.33;;;;;;;0.98;90.65;101988.09;3153332;28;20048;-77
2023/12/17 01:38:38;;;;;;;37.30;17.95;;;;;;;1.04;90.63;101984.00;3152941;28;20051;-79
2023/12/17 01:40:09;;;;;;;33.60;17.08;;;;;;;1.02;90.71;101984.78;3152506;28;20519;-73
2023/12/17 01:41:41;;;;;;;34.60;16.77;;;;;;;1.03;90.73;101991.66;3152494;28;20123;-74
2023/12/17 01:43:12;;;;;;;36.50;17.13;;;;;;;1.04;90.61;101995.97;3152136;28;20047;-76
2023/12/17 01:44:44;;;;;;;39.80;18.38;;;;;;;1.06;90.79;101997.72;3158489;28;20472;-76
2023/12/17 01:46:15;;;;;;;38.38;18.63;;;;;;;1.07;90.71;101998.63;3160128;28;20066;-75
2023/12/17 01:47:47;;;;;;;39.70;18.42;;;;;;;1.07;90.70;101993.50;3156464;28;20165;-74
2023/12/17 01:49:18;;;;;;;34.92;17.10;;;;;;;1.03;90.78;101987.38;3164729;28;20051;-74
2023/12/17 01:50:50;;;;;;;39.17;18.50;;;;;;;1.07;90.86;101999.50;3162605;28;20044;-78
2023/12/17 01:52:22;;;;;;;40.60;19.02;;;;;;;1.07;90.92;102003.75;3156709;28;20138;-78
2023/12/17 01:53:55;;;;;;;39.85;18.25;;;;;;;1.07;90.88;102007.19;3152237;28;20486;-78
2023/12/17 01:55:35;;;;;;;;;;;;;;;0.94;90.95;101997.38;3154432;28;20060;-79
2023/12/17 01:57:07;;;;;;;33.47;16.48;;;;;;;0.98;91.25;101993.22;3153428;28;20445;-78
2023/12/17 01:58:37;;;;;;;36.05;18.00;;;;;;;0.99;91.17;101987.25;3165257;28;20052;-78
2023/12/17 02:00:10;;;;;;;37.78;17.67;;;;;;;1.01;91.15;101995.88;3162311;28;20048;-79
2023/12/17 02:01:44;;;;;;;41.75;18.85;;;;;;;0.98;91.21;101999.22;3152401;28;20070;-79
2023/12/17 02:03:15;;;;;;;38.00;18.63;;;;;;;0.99;91.17;101989.81;3154717;28;20063;-77
2023/12/17 02:04:47;;;;;;;38.97;18.38;;;;;;;0.98;91.17;101999.22;3154013;28;20079;-79
2023/12/17 02:06:18;;;;;;;41.13;19.60;;;;;;;0.97;91.13;102004.28;3152514;28;20063;-77
2023/12/17 02:07:50;;;;;;;40.92;19.80;;;;;;;0.96;91.33;101998.31;3152792;28;20221;-77
2023/12/17 02:09:22;;;;;;;38.08;18.98;;;;;;;0.92;91.33;102004.19;3153114;28;20052;-77
2023/12/17 02:10:54;;;;;;;37.70;18.77;;;;;;;0.87;91.49;102011.72;3152976;28;20417;-79
2023/12/17 02:12:26;;;;;;;36.17;18.02;;;;;;;0.83;91.55;102011.59;3156867;28;20100;-78
2023/12/17 02:13:58;;;;;;;33.50;17.38;;;;;;;0.76;91.35;102009.66;3157493;28;20051;-83
2023/12/17 02:15:29;;;;;;;36.53;17.85;;;;;;;0.32;91.30;101945.94;3158888;28;20047;-78
2023/12/17 02:17:01;;;;;;;37.67;18.60;;;;;;;0.63;91.45;102016.97;3163721;28;20480;-78
2023/12/17 02:18:32;;;;;;;33.40;17.30;;;;;;;0.57;91.45;102010.81;3161218;28;20108;-76
2023/12/17 02:20:04;;;;;;;39.83;19.75;;;;;;;0.50;91.64;102008.84;3164149;28;20109;-74
2023/12/17 02:21:35;;;;;;;36.55;18.10;;;;;;;0.44;91.62;102001.84;3164858;28;20058;-77
2023/12/17 02:23:08;;;;;;;38.50;17.17;;;;;;;0.47;91.50;102011.31;3162824;28;20052;-75
2023/12/17 02:24:39;;;;;;;35.28;17.10;;;;;;;0.41;91.48;102015.44;3152304;28;20513;-75
2023/12/17 02:26:10;;;;;;;33.45;16.02;;;;;;;0.39;91.50;102011.09;3151860;28;20162;-75
2023/12/17 02:27:43;;;;;;;32.10;15.88;;;;;;;0.36;91.58;102013.56;3151728;28;20071;-75
2023/12/17 02:29:15;;;;;;;39.85;17.88;;;;;;;0.33;91.54;102023.72;3152484;28;20151;-74
2023/12/17 02:30:49;;;;;;;32.97;16.83;;;;;;;0.31;91.48;102008.28;3163923;28;20554;-75
2023/12/17 02:32:23;;;;;;;36.22;15.77;;;;;;;0.24;91.50;102008.91;3162305;28;20561;-75
2023/12/17 02:33:53;;;;;;;35.10;15.48;;;;;;;0.20;91.32;102014.72;3152128;28;20146;-76
2023/12/17 02:35:25;;;;;;;32.78;15.98;;;;;;;0.18;91.37;102006.16;3151828;28;20138;-75
2023/12/17 02:36:56;;;;;;;34.33;16.95;;;;;;;0.14;91.37;102012.84;3152066;28;20071;-76
2023/12/17 02:38:29;;;;;;;33.50;16.23;;;;;;;0.11;91.46;102017.88;3160779;28;20168;-75
2023/12/17 02:40:00;;;;;;;35.00;16.45;;;;;;;0.04;91.26;102010.81;3156087;28;20052;-75
2023/12/17 02:41:32;;;;;;;33.55;16.08;;;;;;;0.07;91.41;102018.59;3151829;28;20206;-73
2023/12/17 02:43:03;;;;;;;30.42;15.68;;;;;;;0.06;91.31;102014.31;3158328;28;20047;-73
2023/12/17 02:44:35;;;;;;;34.22;15.18;;;;;;;0.05;91.24;102020.22;3158784;28;20055;-76
2023/12/17 02:46:07;;;;;;;27.33;13.93;;;;;;;0.03;91.25;102016.75;3151651;28;20055;-78
2023/12/17 02:47:38;;;;;;;30.52;15.20;;;;;;;0.01;91.17;102009.84;3156076;28;20055;-77
2023/12/17 02:49:11;;;;;;;30.33;14.15;;;;;;;-0.02;91.16;102008.03;3154695;28;20580;-77
2023/12/17 02:50:42;;;;;;;30.77;14.88;;;;;;;-0.05;91.14;102007.94;3159888;28;20120;-77
2023/12/17 02:52:14;;;;;;;26.88;13.93;;;;;;;-0.09;90.99;102008.63;3156498;28;20084;-77
2023/12/17 02:53:46;;;;;;;31.17;13.98;;;;;;;-0.13;90.99;102017.91;3164029;28;20090;-77
2023/12/17 02:55:18;;;;;;;24.98;13.05;;;;;;;-0.18;90.99;102006.63;3163947;28;20473;-77
2023/12/17 02:56:49;;;;;;;25.10;13.85;;;;;;;-0.55;90.86;101953.31;3164382;28;20047;-78
2023/12/17 02:58:21;;;;;;;27.02;13.98;;;;;;;-0.66;90.95;101945.25;3151136;28;20056;-78
2023/12/17 02:59:52;;;;;;;30.05;14.35;;;;;;;-0.33;90.93;102004.41;3159548;28;20047;-78
2023/12/17 03:01:24;;;;;;;28.02;14.10;;;;;;;-0.35;91.01;102013.75;3155653;28;20060;-77
2023/12/17 03:02:55;;;;;;;29.27;14.88;;;;;;;-0.37;90.82;102012.81;3154829;28;20445;-77
2023/12/17 03:04:26;;;;;;;23.60;13.13;;;;;;;-0.38;90.85;102012.78;3151536;28;20083;-78
2023/12/17 03:05:57;;;;;;;28.50;13.90;;;;;;;-0.44;90.79;102009.97;3151305;28;20137;-78
2023/12/17 03:07:30;;;;;;;23.52;12.63;;;;;;;-0.45;90.76;102011.69;3157561;28;20488;-78
2023/12/17 03:09:03;;;;;;;26.45;13.45;;;;;;;-0.50;90.68;102023.47;3163781;28;20056;-74
2023/12/17 03:10:38;;;;;;;25.98;13.27;;;;;;;-0.55;90.92;102012.19;3158607;28;20047;-76
2023/12/17 03:12:09;;;;;;;24.80;13.40;;;;;;;-0.47;90.99;102021.00;3153526;28;20101;-76
2023/12/17 03:13:40;;;;;;;30.92;14.13;;;;;;;-0.42;91.21;102021.16;3158987;28;20135;-79
2023/12/17 03:15:11;;;;;;;24.35;14.18;;;;;;;-0.39;90.98;102019.56;3154545;28;20047;-78
2023/12/17 03:16:43;;;;;;;28.30;14.50;;;;;;;-0.36;91.07;102012.00;3163614;28;20173;-77
2023/12/17 03:18:15;;;;;;;29.65;14.75;;;;;;;-0.33;91.02;102003.56;3163907;28;20059;-77
2023/12/17 03:19:47;;;;;;;25.52;13.70;;;;;;;-0.42;91.17;101987.88;3163828;28;20511;-77
2023/12/17 03:21:19;;;;;;;27.30;14.93;;;;;;;-0.31;91.14;102004.50;3163378;28;20448;-78
2023/12/17 03:22:50;;;;;;;27.58;14.48;;;;;;;-0.49;91.09;101980.00;3155233;28;20196;-78
2023/12/17 03:24:22;;;;;;;28.60;13.40;;;;;;;-0.30;91.26;102008.78;3163331;28;20488;-77
2023/12/17 03:25:54;;;;;;;25.08;13.65;;;;;;;-0.34;91.21;102020.59;3160201;28;20496;-77
2023/12/17 03:27:25;;;;;;;30.55;14.52;;;;;;;-0.41;91.15;102012.66;3151171;28;20063;-77
2023/12/17 03:28:57;;;;;;;26.83;14.18;;;;;;;-0.37;91.41;102019.63;3161364;28;21041;-78
2023/12/17 03:30:28;;;;;;;21.98;13.13;;;;;;;-0.35;91.30;102016.31;3154661;28;20113;-78
2023/12/17 03:32:02;;;;;;;27.83;13.23;;;;;;;-0.34;91.37;102017.19;3159193;28;20446;-78
2023/12/17 03:33:33;;;;;;;23.38;12.73;;;;;;;-0.34;91.50;102022.31;3155744;28;20064;-79
2023/12/17 03:35:06;;;;;;;24.65;13.90;;;;;;;-0.34;91.48;102018.06;3159592;28;20085;-76
2023/12/17 03:36:36;;;;;;;26.10;13.50;;;;;;;-0.33;91.32;102011.25;3163380;28;20070;-74
2023/12/17 03:38:08;;;;;;;26.42;14.18;;;;;;;-0.32;91.53;102007.88;3161260;28;20048;-77
2023/12/17 03:39:40;;;;;;;24.50;13.40;;;;;;;-0.30;91.35;102011.34;3158718;28;20809;-76
2023/12/17 03:41:21;;;;;;;21.45;12.57;;;;;;;-0.29;91.44;102020.78;3155115;28;20062;-76
2023/12/17 03:42:53;;;;;;;24.35;14.23;;;;;;;-0.31;91.68;102018.16;3158512;28;20044;-82
2023/12/17 03:44:24;;;;;;;30.90;13.75;;;;;;;-0.30;91.42;102012.19;3163494;28;20059;-78
2023/12/17 03:45:55;;;;;;;27.73;14.27;;;;;;;-0.30;91.45;102013.91;3157367;28;20515;-78
2023/12/17 03:47:27;;;;;;;27.83;14.85;;;;;;;-0.30;91.52;102009.66;3151307;28;20083;-73
2023/12/17 03:48:58;;;;;;;26.20;14.30;;;;;;;-0.31;91.47;102007.91;3151052;28;20357;-73
2023/12/17 03:50:30;;;;;;;27.17;15.23;;;;;;;-0.30;91.57;102016.47;3151119;28;20540;-73
2023/12/17 03:52:03;;;;;;;27.90;14.43;;;;;;;-0.34;91.53;102009.50;3162410;28;20050;-72
2023/12/17 03:53:34;;;;;;;26.15;13.88;;;;;;;-0.32;91.64;102024.09;3153148;28;20059;-73
2023/12/17 03:55:08;;;;;;;24.85;14.20;;;;;;;-0.30;91.70;102016.47;3160828;28;20051;-74
2023/12/17 03:56:45;;;;;;;;;;;;;;;-0.42;91.86;102021.16;3154918;28;20074;-74
2023/12/17 03:58:16;;;;;;;31.45;13.60;;;;;;;-0.38;92.02;102018.78;3150797;28;20377;-73
2023/12/17 03:59:48;;;;;;;27.90;14.68;;;;;;;-0.34;91.92;102020.59;3157583;28;20063;-73
2023/12/17 04:01:19;;;;;;;29.33;14.68;;;;;;;-0.32;91.82;102018.97;3163165;28;20048;-71
2023/12/17 04:02:51;;;;;;;27.88;14.23;;;;;;;-0.30;91.90;102008.78;3163609;28;20568;-71
2023/12/17 04:04:22;;;;;;;27.08;14.60;;;;;;;-0.30;92.00;102014.75;3163377;28;20056;-70
2023/12/17 04:05:54;;;;;;;23.65;13.48;;;;;;;-0.28;91.98;102013.13;3157032;28;20493;-71
2023/12/17 04:07:26;;;;;;;26.20;13.68;;;;;;;-0.31;91.92;102009.59;3156734;28;20126;-77
2023/12/17 04:08:58;;;;;;;25.08;13.45;;;;;;;-0.25;92.00;102020.94;3158309;28;20521;-77
2023/12/17 04:10:30;;;;;;;24.60;13.57;;;;;;;-0.34;92.00;102000.13;3150641;28;20048;-76
2023/12/17 04:12:02;;;;;;;25.20;12.40;;;;;;;-0.23;91.87;102023.56;3151760;28;20508;-76
2023/12/17 04:13:33;;;;;;;27.88;12.38;;;;;;;-0.21;92.04;102029.56;3159212;28;20124;-79
2023/12/17 04:15:05;;;;;;;26.33;14.10;;;;;;;-0.20;92.04;102026.22;3157172;28;20051;-78
2023/12/17 04:16:37;;;;;;;27.77;14.32;;;;;;;-0.23;91.88;102023.56;3154316;28;20500;-82
2023/12/17 04:18:08;;;;;;;23.20;13.05;;;;;;;-0.17;92.02;102026.31;3154152;28;20055;-77
2023/12/17 04:19:40;;;;;;;23.20;12.38;;;;;;;-0.14;92.00;102028.13;3155747;28;20092;-80
2023/12/17 04:21:11;;;;;;;24.67;12.57;;;;;;;-0.13;91.87;102029.84;3152742;28;20086;-77
2023/12/17 04:22:42;;;;;;;26.90;13.52;;;;;;;-0.16;91.88;102022.06;3162570;28;20062;-79
2023/12/17 04:24:13;;;;;;;21.75;12.25;;;;;;;-0.09;91.78;102029.13;3150908;28;20238;-76
2023/12/17 04:25:47;;;;;;;23.17;13.05;;;;;;;-0.09;91.81;102026.56;3150617;28;20504;-75
2023/12/17 04:27:17;;;;;;;;;;;;;;;-0.20;91.86;102031.34;3160932;28;20058;-74
2023/12/17 04:28:49;;;;;;;23.50;12.13;;;;;;;-0.17;92.02;102028.03;3160476;28;19947;-79
2023/12/17 04:30:20;;;;;;;25.10;11.82;;;;;;;-0.98;92.01;101891.25;3156509;28;20083;-77
2023/12/17 04:31:51;;;;;;;24.92;12.18;;;;;;;-0.14;91.91;102033.25;3150746;28;20529;-78
2023/12/17 04:33:22;;;;;;;20.48;11.18;;;;;;;-0.12;91.92;102034.16;3151033;28;20357;-74
2023/12/17 04:34:55;;;;;;;22.88;12.77;;;;;;;-0.11;91.76;102033.34;3150800;28;20525;-72
2023/12/17 04:36:27;;;;;;;23.30;12.55;;;;;;;-0.11;91.80;102035.91;3150809;28;20085;-76
2023/12/17 04:37:58;;;;;;;23.77;12.27;;;;;;;-0.09;91.86;102034.25;3150715;28;20055;-76
2023/12/17 04:39:30;;;;;;;23.55;12.82;;;;;;;-0.08;91.71;102038.56;3150677;28;20052;-76
2023/12/17 04:41:02;;;;;;;26.15;12.55;;;;;;;-0.08;91.70;102039.44;3153104;28;20056;-78
2023/12/17 04:42:34;;;;;;;27.23;13.52;;;;;;;-0.08;91.71;102044.56;3152869;28;20483;-77
2023/12/17 04:44:05;;;;;;;24.45;12.73;;;;;;;-0.61;91.62;101948.00;3153004;28;20059;-76
2023/12/17 04:45:36;;;;;;;24.70;12.60;;;;;;;-0.08;91.61;102044.56;3156842;28;20091;-79
2023/12/17 04:47:08;;;;;;;25.00;13.02;;;;;;;-0.40;91.70;101978.56;3159028;28;20079;-78
2023/12/17 04:48:39;;;;;;;23.08;11.85;;;;;;;-0.10;91.48;102035.94;3160518;28;20472;-76
2023/12/17 04:50:11;;;;;;;24.58;12.60;;;;;;;-0.04;91.52;102053.22;3157192;28;20089;-75
2023/12/17 04:51:42;;;;;;;25.50;12.85;;;;;;;-0.05;91.33;102060.03;3157758;28;20051;-77
2023/12/17 04:53:14;;;;;;;25.25;12.13;;;;;;;-0.06;91.44;102048.06;3161204;28;20102;-72
2023/12/17 04:54:45;;;;;;;26.67;13.68;;;;;;;-0.05;91.36;102043.81;3163039;28;20074;-72
2023/12/17 04:56:19;;;;;;;23.90;12.80;;;;;;;-0.03;91.32;102047.25;3162214;28;20070;-79
2023/12/17 04:57:50;;;;;;;26.38;12.30;;;;;;;-0.06;91.33;102048.06;3153414;28;20513;-81
2023/12/17 04:59:22;;;;;;;23.83;11.85;;;;;;;-0.09;91.18;102039.38;3157450;28;20044;-78
2023/12/17 05:00:58;;;;;;;27.27;12.48;;;;;;;-0.07;91.18;102051.41;3161404;28;20044;-82
2023/12/17 05:02:29;;;;;;;24.05;11.60;;;;;;;-0.10;91.26;102040.19;3158074;28;20078;-79
2023/12/17 05:04:01;;;;;;;27.38;13.02;;;;;;;-0.07;91.05;102048.84;3156547;28;20059;-81
2023/12/17 05:05:31;;;;;;;23.08;12.35;;;;;;;-0.07;91.27;102055.69;3152996;28;20051;-80
2023/12/17 05:07:04;;;;;;;26.40;11.82;;;;;;;-0.06;91.19;102045.50;3155913;28;20052;-81
2023/12/17 05:08:34;;;;;;;25.73;12.75;;;;;;;-0.10;91.18;102046.19;3154179;28;20565;-81
2023/12/17 05:10:08;;;;;;;22.88;12.55;;;;;;;-0.08;91.28;102039.44;3163567;28;20055;-81
2023/12/17 05:11:41;;;;;;;23.90;11.43;;;;;;;-0.04;91.14;102037.84;3165449;28;20070;-77
2023/12/17 05:13:12;;;;;;;24.13;12.55;;;;;;;-0.04;91.22;102050.66;3156781;28;20047;-77
2023/12/17 05:14:43;;;;;;;23.05;11.70;;;;;;;-0.08;91.21;102042.00;3161886;28;20539;-79
2023/12/17 05:16:14;;;;;;;26.20;11.80;;;;;;;-0.03;91.12;102048.16;3152720;28;20489;-77
2023/12/17 05:17:46;;;;;;;28.77;13.73;;;;;;;-0.08;91.15;102036.00;3159587;28;20057;-80
2023/12/17 05:19:17;;;;;;;24.75;11.93;;;;;;;-0.01;90.98;102053.31;3159407;28;20137;-75
2023/12/17 05:20:49;;;;;;;24.17;11.65;;;;;;;-0.01;90.97;102055.88;3158279;28;20081;-76
2023/12/17 05:22:20;;;;;;;25.33;11.70;;;;;;;-0.07;90.84;102037.75;3160893;28;20055;-76
2023/12/17 05:23:52;;;;;;;24.92;12.23;;;;;;;-0.02;90.91;102049.03;3152619;28;20407;-74
2023/12/17 05:25:23;;;;;;;23.35;12.50;;;;;;;-0.01;90.88;102046.50;3152713;28;20059;-76
2023/12/17 05:26:56;;;;;;;26.13;12.95;;;;;;;0.01;90.71;102048.25;3154036;28;20461;-76
2023/12/17 05:28:27;;;;;;;24.70;13.52;;;;;;;-0.04;90.79;102040.41;3152569;28;20078;-81
2023/12/17 05:29:59;;;;;;;21.50;11.82;;;;;;;0.00;90.82;102044.84;3155831;28;20052;-77
2023/12/17 05:31:30;;;;;;;24.40;12.15;;;;;;;-0.01;90.68;102045.63;3155008;28;20048;-73
2023/12/17 05:33:03;;;;;;;28.48;12.07;;;;;;;-0.01;90.73;102050.75;3152655;28;20105;-73
2023/12/17 05:34:34;;;;;;;27.48;13.05;;;;;;;-0.02;90.66;102046.47;3152840;28;20102;-72
2023/12/17 05:36:07;;;;;;;26.73;12.95;;;;;;;-0.03;90.67;102047.25;3152260;28;20078;-72
2023/12/17 05:37:38;;;;;;;24.65;12.82;;;;;;;-0.02;90.66;102056.72;3155514;28;20051;-74
2023/12/17 05:39:09;;;;;;;23.30;12.38;;;;;;;-0.10;90.42;102051.31;3152426;28;20190;-76
2023/12/17 05:40:40;;;;;;;25.85;12.55;;;;;;;-0.01;90.58;102058.44;3161516;28;20055;-77
2023/12/17 05:42:13;;;;;;;26.60;11.38;;;;;;;0.01;90.64;102063.63;3165222;28;20602;-75
2023/12/17 05:43:44;;;;;;;;;;;;;;;-0.12;90.66;102060.66;3153815;28;20055;-72
2023/12/17 05:45:16;;;;;;;21.98;11.30;;;;;;;-0.36;90.86;102022.22;3156954;28;20369;-68
2023/12/17 05:46:47;;;;;;;25.10;11.85;;;;;;;-0.06;90.79;102072.78;3162829;28;20172;-73
2023/12/17 05:48:19;;;;;;;24.77;12.05;;;;;;;-0.05;90.60;102074.53;3163819;28;20081;-72
2023/12/17 05:49:50;;;;;;;26.08;12.18;;;;;;;-0.04;90.60;102069.44;3163047;28;20044;-71
2023/12/17 05:51:22;;;;;;;22.52;12.00;;;;;;;-0.03;90.47;102075.44;3163443;28;20281;-68
2023/12/17 05:52:53;;;;;;;25.48;11.60;;;;;;;-0.02;90.35;102082.31;3163375;28;20056;-76
2023/12/17 05:54:25;;;;;;;23.48;11.30;;;;;;;-0.16;90.36;102071.59;3163148;28;20062;-76
2023/12/17 05:55:58;;;;;;;20.40;10.90;;;;;;;-0.02;90.38;102095.13;3162713;28;20054;-78
2023/12/17 05:57:31;;;;;;;21.38;10.90;;;;;;;-0.01;90.30;102104.56;3162133;28;20173;-79
2023/12/17 05:59:02;;;;;;;18.15;10.30;;;;;;;-0.08;90.22;102090.66;3164097;28;20563;-75
2023/12/17 06:00:34;;;;;;;21.63;10.95;;;;;;;-0.01;90.25;102105.41;3164315;28;20052;-78
2023/12/17 06:02:05;;;;;;;22.15;11.32;;;;;;;0.01;90.11;102107.19;3162612;28;20441;-75
2023/12/17 06:03:37;;;;;;;23.60;11.70;;;;;;;0.02;89.98;102107.22;3162294;28;20043;-81
2023/12/17 06:05:08;;;;;;;19.92;11.15;;;;;;;-0.01;89.97;102107.97;3163517;28;20067;-78
2023/12/17 06:06:40;;;;;;;27.15;13.23;;;;;;;0.03;89.86;102115.78;3153999;28;20063;-76
2023/12/17 06:08:11;;;;;;;27.10;13.05;;;;;;;-0.05;89.90;102100.16;3163643;28;20052;-77
2023/12/17 06:09:42;;;;;;;22.42;11.30;;;;;;;0.05;89.75;102119.28;3162089;28;20093;-77
2023/12/17 06:11:16;;;;;;;25.20;11.52;;;;;;;-0.37;89.98;102051.22;3153533;28;20070;-77
2023/12/17 06:12:49;;;;;;;;;;;;;;;-0.03;89.81;102118.97;3161337;28;20040;-77
2023/12/17 06:14:20;;;;;;;22.70;10.90;;;;;;;0.03;90.15;102120.91;3161931;28;19923;-77
2023/12/17 06:15:51;;;;;;;26.63;12.23;;;;;;;0.08;89.94;102117.69;3162941;28;20405;-76
2023/12/17 06:17:22;;;;;;;23.58;11.90;;;;;;;0.14;89.94;102117.88;3156802;28;20059;-75
2023/12/17 06:18:54;;;;;;;26.55;12.05;;;;;;;0.20;89.81;102119.78;3158852;28;20059;-77
2023/12/17 06:20:25;;;;;;;22.13;11.95;;;;;;;0.25;89.77;102115.69;3163736;28;20465;-78
2023/12/17 06:21:59;;;;;;;22.58;12.48;;;;;;;0.30;89.71;102115.88;3158025;28;20064;-79
2023/12/17 06:23:31;;;;;;;20.23;11.10;;;;;;;0.34;89.63;102126.25;3153389;28;20051;-78
2023/12/17 06:25:02;;;;;;;28.70;12.63;;;;;;;0.40;89.73;102112.78;3158765;28;20240;-78
2023/12/17 06:26:35;;;;;;;35.05;14.57;;;;;;;0.42;89.60;102103.47;3162890;28;20068;-78
2023/12/17 06:28:08;;;;;;;28.87;14.17;;;;;;;0.53;89.61;102114.06;3161172;28;20054;-78
2023/12/17 06:29:39;;;;;;;;;;;;;;;0.46;89.55;102110.44;3155014;28;20056;-77
2023/12/17 06:31:10;;;;;;;29.45;14.07;;;;;;;0.51;89.69;102106.34;3163174;28;19950;-77
2023/12/17 06:32:42;;;;;;;23.58;12.05;;;;;;;0.62;89.59;102117.81;3164464;28;20051;-78
2023/12/17 06:34:14;;;;;;;26.20;11.25;;;;;;;0.65;89.44;102111.88;3157286;28;20063;-78
2023/12/17 06:35:45;;;;;;;25.02;11.15;;;;;;;0.31;89.19;102040.72;3156448;28;20075;-75
2023/12/17 06:37:17;;;;;;;23.20;11.95;;;;;;;0.80;89.12;102108.94;3162111;28;20043;-73
2023/12/17 06:38:48;;;;;;;25.33;12.05;;;;;;;0.84;89.09;102110.81;3155477;28;20056;-76
2023/12/17 06:40:20;;;;;;;27.15;12.25;;;;;;;0.90;88.88;102111.00;3154458;28;20051;-75
2023/12/17 06:41:51;;;;;;;26.02;12.15;;;;;;;0.77;88.58;102075.50;3162450;28;20048;-73
2023/12/17 06:43:24;;;;;;;24.33;11.95;;;;;;;0.52;88.18;102035.41;3156505;28;20108;-72
2023/12/17 06:44:55;;;;;;;23.50;11.30;;;;;;;0.96;88.30;102110.31;3162376;28;20135;-72
2023/12/17 06:46:27;;;;;;;24.17;11.80;;;;;;;0.62;88.18;102048.59;3159588;28;20051;-72
2023/12/17 06:47:58;;;;;;;31.60;15.52;;;;;;;1.07;88.29;102112.41;3160136;28;20047;-73
2023/12/17 06:49:30;;;;;;;26.35;13.65;;;;;;;1.08;88.00;102097.84;3159952;28;20066;-74
2023/12/17 06:51:00;;;;;;;34.90;15.02;;;;;;;1.19;87.86;102108.47;3163671;28;20059;-70
2023/12/17 06:52:32;;;;;;;31.17;15.68;;;;;;;1.23;87.65;102102.59;3163453;28;20444;-74
2023/12/17 06:54:04;;;;;;;29.45;14.52;;;;;;;1.32;87.40;102114.00;3160394;28;20123;-66
2023/12/17 06:55:35;;;;;;;95.28;41.80;;;;;;;1.38;87.18;102118.44;3156538;28;20064;-75
2023/12/17 06:57:07;;;;;;;42.20;19.50;;;;;;;1.34;86.99;102102.09;3162428;28;20064;-72
2023/12/17 06:58:39;;;;;;;30.15;14.65;;;;;;;1.49;86.73;102111.94;3159393;28;20616;-70
2023/12/17 07:00:13;;;;;;;28.45;13.60;;;;;;;1.52;86.59;102116.28;3153325;28;20583;-76
2023/12/17 07:01:44;;;;;;;30.95;15.13;;;;;;;1.56;86.53;102111.25;3159624;28;20082;-77